Yvonne K. — PBLX — position and weather

sailwx.info

Track history (hours):
 
Tides and Currents Weather Stations Pressure Air Temp Water Temp Dewpoint Dewpoint Depression Visibility Wind Speed Wind Dir Waves Ship Positions

Yvonne K.

Last reported at 2017-Jan-15 23:33 UTC. Time now 2017-Jan-17 10:55 UTC.
Position N 50°11' W 001°44'.

Length 90 m; draft 5 m.

Type: Cargo ship. MMSI: 244948000.

Date/timePositionNaut miles runAvg speedWind from/ knotsBaromVisibWave heightAir tempDewpointWater temp
2017-Jan-15 23:33N 50°11' W 001°44'66 8.2
2017-Jan-15 15:33N 50°31' W 000°07'10 9.9
2017-Jan-15 14:33N 50°34' E 000°08'9 9.2
2017-Jan-15 13:33N 50°37' E 000°22'8 8.3
2017-Jan-15 12:33N 50°39' E 000°34'8 7.9
2017-Jan-15 11:33N 50°44' E 000°45'9 8.1
2017-Jan-15 10:25N 50°49' E 000°57'8 9.6
2017-Jan-15 09:33N 50°54' E 001°07'1111.4
2017-Jan-15 08:33N 51°01' E 001°21'1211.9
2017-Jan-15 07:34N 51°09' E 001°36'1010.4
2017-Jan-15 06:33N 51°16' E 001°47'9 8.7
2017-Jan-15 05:33N 51°23' E 001°56'8 7.8
2017-Jan-15 04:33N 51°29' E 002°03'7 7.4
2017-Jan-15 03:33N 51°35' E 002°11'176 4.6
2017-Jan-13 13:14N 53°40' E 005°35'5 7.7
2017-Jan-13 12:33N 53°41' E 005°44'8 7.6
2017-Jan-13 11:30N 53°44' E 005°56'82 8.3
2017-Jan-13 01:33N 54°01' E 008°13'1110.9
2017-Jan-13 00:33N 53°59' E 008°31'9 8.6
2017-Jan-12 23:33N 53°53' E 008°42'7 7.2
2017-Jan-12 22:33N 53°51' E 008°54'8 8.4
2017-Jan-12 21:33N 53°53' E 009°07'10 9.8
2017-Jan-12 20:33N 53°49' E 009°22'1212.2
2017-Jan-12 19:34N 53°38' E 009°32'1211.9
2017-Jan-12 18:33N 53°33' E 009°50'4 4.2
2017-Jan-12 17:32N 53°31' E 009°57'0 0.0
2017-Jan-12 16:32N 53°31' E 009°57'0 0.0
2017-Jan-12 15:32N 53°31' E 009°57'0 0.0
2017-Jan-12 14:32N 53°31' E 009°57'0 0.0
2017-Jan-12 13:32N 53°31' E 009°57'1 1.5
2017-Jan-12 12:33N 53°33' E 009°57'1 0.8
2017-Jan-12 11:33N 53°32' E 009°57'0 0.0
2017-Jan-12 10:33N 53°32' E 009°57'0 0.0
2017-Jan-12 09:34N 53°32' E 009°57'0 0.0
2017-Jan-12 08:33N 53°32' E 009°57'1 0.9
2017-Jan-12 07:33N 53°32' E 009°56'1 1.3
2017-Jan-12 06:31N 53°31' E 009°57'0 0.0
2017-Jan-12 05:31N 53°31' E 009°57'0 0.0
2017-Jan-12 04:31N 53°31' E 009°57'0 0.0
2017-Jan-12 03:31N 53°31' E 009°57'0 0.0
2017-Jan-12 02:31N 53°31' E 009°57'0 0.0
2017-Jan-12 01:31N 53°31' E 009°57'0 0.0
2017-Jan-12 00:31N 53°31' E 009°57'0 0.0
2017-Jan-11 23:31N 53°31' E 009°57'0 0.0
2017-Jan-11 22:31N 53°31' E 009°57'2 2.4
2017-Jan-11 21:33N 53°32' E 009°54'10 9.6
2017-Jan-11 20:33N 53°35' E 009°38'9 9.3
2017-Jan-11 19:33N 53°42' E 009°29'9 8.8
2017-Jan-11 18:33N 53°50' E 009°21'8 8.0
2017-Jan-11 17:33N 53°53' E 009°09'4 4.1
2017-Jan-11 16:34N 53°52' E 009°02'4 3.6
2017-Jan-11 15:33N 53°51' E 008°56'6 5.7
2017-Jan-11 14:33N 53°51' E 008°47'9 8.9
2017-Jan-11 13:33N 53°57' E 008°37'9 9.2
2017-Jan-11 12:33N 53°59' E 008°21'1010.4
2017-Jan-11 11:33N 53°59' E 008°04'1110.9
2017-Jan-11 10:33N 53°56' E 007°46'13110.9
2017-Jan-10 22:32N 53°02' E 004°24'10 9.7
2017-Jan-10 21:33N 52°53' E 004°17'10 8.6
2017-Jan-10 20:20N 52°43' E 004°13'7 9.4
2017-Jan-10 19:33N 52°37' E 004°19'9 9.4
2017-Jan-10 18:33N 52°29' E 004°27'6 5.8
2017-Jan-10 17:33N 52°28' E 004°36'8 8.3
2017-Jan-10 16:34N 52°25' E 004°49'0 0.2
2017-Jan-10 15:31N 52°25' E 004°49'0 0.0
2017-Jan-10 14:31N 52°25' E 004°49'0 0.0
2017-Jan-10 13:28N 52°25' E 004°49'0 0.0
2017-Jan-10 12:31N 52°25' E 004°49'0 0.0
2017-Jan-10 11:31N 52°25' E 004°49'0 0.0
2017-Jan-10 10:31N 52°25' E 004°49'0 0.0
2017-Jan-10 09:28N 52°25' E 004°49'0 0.0
2017-Jan-10 08:31N 52°25' E 004°49'0 0.0
2017-Jan-10 07:31N 52°25' E 004°49'0 0.0
2017-Jan-10 06:28N 52°25' E 004°49'0 0.1
2017-Jan-10 05:34N 52°25' E 004°49'0 0.3
2017-Jan-10 04:29N 52°25' E 004°49'0 0.0
2017-Jan-10 03:32N 52°25' E 004°49'0 0.0
2017-Jan-10 02:32N 52°25' E 004°49'0 0.0
2017-Jan-10 01:29N 52°25' E 004°49'0 0.0
2017-Jan-10 00:32N 52°25' E 004°49'0 0.0
2017-Jan-09 23:32N 52°25' E 004°49'0 0.0
2017-Jan-09 22:32N 52°25' E 004°49'0 0.0
2017-Jan-09 21:32N 52°25' E 004°49'0 0.0
2017-Jan-09 20:32N 52°25' E 004°49'0 0.0
2017-Jan-09 19:32N 52°25' E 004°49'0 0.0
2017-Jan-09 18:32N 52°25' E 004°49'0 0.0
2017-Jan-09 17:32N 52°25' E 004°49'0 0.0
2017-Jan-09 16:32N 52°25' E 004°49'0 0.0
2017-Jan-09 15:32N 52°25' E 004°49'0 0.0
2017-Jan-09 14:32N 52°25' E 004°49'0 0.0
2017-Jan-09 13:32N 52°25' E 004°49'0 0.0
2017-Jan-09 12:32N 52°25' E 004°49'0 0.0
2017-Jan-09 11:32N 52°25' E 004°49'0 0.0
2017-Jan-09 10:29N 52°25' E 004°49'0 0.0
2017-Jan-09 09:32N 52°25' E 004°49'0 0.0
2017-Jan-09 08:32N 52°25' E 004°49'0 0.0
2017-Jan-09 07:26N 52°25' E 004°49'0 0.0
2017-Jan-09 06:32N 52°25' E 004°49'0 0.0
2017-Jan-09 05:32N 52°25' E 004°49'0 0.0
2017-Jan-09 04:32N 52°25' E 004°49'0 0.0
2017-Jan-09 03:29N 52°25' E 004°49'0 0.0
2017-Jan-09 02:32N 52°25' E 004°49'0 0.0
2017-Jan-09 01:32N 52°25' E 004°49'0 0.0
2017-Jan-09 00:29N 52°25' E 004°49'0 0.0
2017-Jan-08 23:32N 52°25' E 004°49'5 5.4
2017-Jan-08 22:34N 52°27' E 004°41'4 4.0
2017-Jan-08 21:34N 52°28' E 004°35'8 8.0
2017-Jan-08 20:34N 52°28' E 004°22'7 6.8
2017-Jan-08 19:34N 52°29' E 004°10'7 7.1
2017-Jan-08 18:33N 52°27' E 003°59'84 9.3
2017-Jan-08 09:33N 51°32' E 002°18'1111.0
2017-Jan-08 08:33N 51°22' E 002°10'1110.7
2017-Jan-08 07:33N 51°13' E 002°01'1111.1
2017-Jan-08 06:33N 51°06' E 001°47'1110.5
2017-Jan-08 05:33N 50°58' E 001°35'9 9.2
2017-Jan-08 04:33N 50°51' E 001°27'73 7.9
2017-Jan-07 19:23N 50°15' W 000°13'30 9.8
2017-Jan-07 16:18N 50°07' W 000°59'1411.5
2017-Jan-07 15:05N 50°04' W 001°19'611.9
2017-Jan-07 14:33N 50°02' W 001°29'1211.8
2017-Jan-07 13:34N 49°59' W 001°47'1111.0
2017-Jan-07 12:33N 49°56' W 002°03'  
Track history (hours):
 
Tides and Currents Weather Stations Pressure Air Temp Water Temp Dewpoint Dewpoint Depression Visibility Wind Speed Wind Dir Waves Ship Positions

Yvonne K.

Last reported at 2017-Jan-15 23:33 UTC. Time now 2017-Jan-17 10:55 UTC.
Position N 50°11' W 001°44'.

Length 90 m; draft 5 m.

Type: Cargo ship. MMSI: 244948000.

Date/timePositionNaut miles runAvg speedWind from/ knotsBaromVisibWave heightAir tempDewpointWater temp
2017-Jan-15 23:33N 50°11' W 001°44'66 8.2
2017-Jan-15 15:33N 50°31' W 000°07'10 9.9
2017-Jan-15 14:33N 50°34' E 000°08'9 9.2
2017-Jan-15 13:33N 50°37' E 000°22'8 8.3
2017-Jan-15 12:33N 50°39' E 000°34'8 7.9
2017-Jan-15 11:33N 50°44' E 000°45'9 8.1
2017-Jan-15 10:25N 50°49' E 000°57'8 9.6
2017-Jan-15 09:33N 50°54' E 001°07'1111.4
2017-Jan-15 08:33N 51°01' E 001°21'1211.9
2017-Jan-15 07:34N 51°09' E 001°36'1010.4
2017-Jan-15 06:33N 51°16' E 001°47'9 8.7
2017-Jan-15 05:33N 51°23' E 001°56'8 7.8
2017-Jan-15 04:33N 51°29' E 002°03'7 7.4
2017-Jan-15 03:33N 51°35' E 002°11'176 4.6
2017-Jan-13 13:14N 53°40' E 005°35'5 7.7
2017-Jan-13 12:33N 53°41' E 005°44'8 7.6
2017-Jan-13 11:30N 53°44' E 005°56'82 8.3
2017-Jan-13 01:33N 54°01' E 008°13'1110.9
2017-Jan-13 00:33N 53°59' E 008°31'9 8.6
2017-Jan-12 23:33N 53°53' E 008°42'7 7.2
2017-Jan-12 22:33N 53°51' E 008°54'8 8.4
2017-Jan-12 21:33N 53°53' E 009°07'10 9.8
2017-Jan-12 20:33N 53°49' E 009°22'1212.2
2017-Jan-12 19:34N 53°38' E 009°32'1211.9
2017-Jan-12 18:33N 53°33' E 009°50'4 4.2
2017-Jan-12 17:32N 53°31' E 009°57'0 0.0
2017-Jan-12 16:32N 53°31' E 009°57'0 0.0
2017-Jan-12 15:32N 53°31' E 009°57'0 0.0
2017-Jan-12 14:32N 53°31' E 009°57'0 0.0
2017-Jan-12 13:32N 53°31' E 009°57'1 1.5
2017-Jan-12 12:33N 53°33' E 009°57'1 0.8
2017-Jan-12 11:33N 53°32' E 009°57'0 0.0
2017-Jan-12 10:33N 53°32' E 009°57'0 0.0
2017-Jan-12 09:34N 53°32' E 009°57'0 0.0
2017-Jan-12 08:33N 53°32' E 009°57'1 0.9
2017-Jan-12 07:33N 53°32' E 009°56'1 1.3
2017-Jan-12 06:31N 53°31' E 009°57'0 0.0
2017-Jan-12 05:31N 53°31' E 009°57'0 0.0
2017-Jan-12 04:31N 53°31' E 009°57'0 0.0
2017-Jan-12 03:31N 53°31' E 009°57'0 0.0
2017-Jan-12 02:31N 53°31' E 009°57'0 0.0
2017-Jan-12 01:31N 53°31' E 009°57'0 0.0
2017-Jan-12 00:31N 53°31' E 009°57'0 0.0
2017-Jan-11 23:31N 53°31' E 009°57'0 0.0
2017-Jan-11 22:31N 53°31' E 009°57'2 2.4
2017-Jan-11 21:33N 53°32' E 009°54'10 9.6
2017-Jan-11 20:33N 53°35' E 009°38'9 9.3
2017-Jan-11 19:33N 53°42' E 009°29'9 8.8
2017-Jan-11 18:33N 53°50' E 009°21'8 8.0
2017-Jan-11 17:33N 53°53' E 009°09'4 4.1
2017-Jan-11 16:34N 53°52' E 009°02'4 3.6
2017-Jan-11 15:33N 53°51' E 008°56'6 5.7
2017-Jan-11 14:33N 53°51' E 008°47'9 8.9
2017-Jan-11 13:33N 53°57' E 008°37'9 9.2
2017-Jan-11 12:33N 53°59' E 008°21'1010.4
2017-Jan-11 11:33N 53°59' E 008°04'1110.9
2017-Jan-11 10:33N 53°56' E 007°46'13110.9
2017-Jan-10 22:32N 53°02' E 004°24'10 9.7
2017-Jan-10 21:33N 52°53' E 004°17'10 8.6
2017-Jan-10 20:20N 52°43' E 004°13'7 9.4
2017-Jan-10 19:33N 52°37' E 004°19'9 9.4
2017-Jan-10 18:33N 52°29' E 004°27'6 5.8
2017-Jan-10 17:33N 52°28' E 004°36'8 8.3
2017-Jan-10 16:34N 52°25' E 004°49'0 0.2
2017-Jan-10 15:31N 52°25' E 004°49'0 0.0
2017-Jan-10 14:31N 52°25' E 004°49'0 0.0
2017-Jan-10 13:28N 52°25' E 004°49'0 0.0
2017-Jan-10 12:31N 52°25' E 004°49'0 0.0
2017-Jan-10 11:31N 52°25' E 004°49'0 0.0
2017-Jan-10 10:31N 52°25' E 004°49'0 0.0
2017-Jan-10 09:28N 52°25' E 004°49'0 0.0
2017-Jan-10 08:31N 52°25' E 004°49'0 0.0
2017-Jan-10 07:31N 52°25' E 004°49'0 0.0
2017-Jan-10 06:28N 52°25' E 004°49'0 0.1
2017-Jan-10 05:34N 52°25' E 004°49'0 0.3
2017-Jan-10 04:29N 52°25' E 004°49'0 0.0
2017-Jan-10 03:32N 52°25' E 004°49'0 0.0
2017-Jan-10 02:32N 52°25' E 004°49'0 0.0
2017-Jan-10 01:29N 52°25' E 004°49'0 0.0
2017-Jan-10 00:32N 52°25' E 004°49'0 0.0
2017-Jan-09 23:32N 52°25' E 004°49'0 0.0
2017-Jan-09 22:32N 52°25' E 004°49'0 0.0
2017-Jan-09 21:32N 52°25' E 004°49'0 0.0
2017-Jan-09 20:32N 52°25' E 004°49'0 0.0
2017-Jan-09 19:32N 52°25' E 004°49'0 0.0
2017-Jan-09 18:32N 52°25' E 004°49'0 0.0
2017-Jan-09 17:32N 52°25' E 004°49'0 0.0
2017-Jan-09 16:32N 52°25' E 004°49'0 0.0
2017-Jan-09 15:32N 52°25' E 004°49'0 0.0
2017-Jan-09 14:32N 52°25' E 004°49'0 0.0
2017-Jan-09 13:32N 52°25' E 004°49'0 0.0
2017-Jan-09 12:32N 52°25' E 004°49'0 0.0
2017-Jan-09 11:32N 52°25' E 004°49'0 0.0
2017-Jan-09 10:29N 52°25' E 004°49'0 0.0
2017-Jan-09 09:32N 52°25' E 004°49'0 0.0
2017-Jan-09 08:32N 52°25' E 004°49'0 0.0
2017-Jan-09 07:26N 52°25' E 004°49'0 0.0
2017-Jan-09 06:32N 52°25' E 004°49'0 0.0
2017-Jan-09 05:32N 52°25' E 004°49'0 0.0
2017-Jan-09 04:32N 52°25' E 004°49'0 0.0
2017-Jan-09 03:29N 52°25' E 004°49'0 0.0
2017-Jan-09 02:32N 52°25' E 004°49'0 0.0
2017-Jan-09 01:32N 52°25' E 004°49'0 0.0
2017-Jan-09 00:29N 52°25' E 004°49'0 0.0
2017-Jan-08 23:32N 52°25' E 004°49'5 5.4
2017-Jan-08 22:34N 52°27' E 004°41'4 4.0
2017-Jan-08 21:34N 52°28' E 004°35'8 8.0
2017-Jan-08 20:34N 52°28' E 004°22'7 6.8
2017-Jan-08 19:34N 52°29' E 004°10'7 7.1
2017-Jan-08 18:33N 52°27' E 003°59'84 9.3
2017-Jan-08 09:33N 51°32' E 002°18'1111.0
2017-Jan-08 08:33N 51°22' E 002°10'1110.7
2017-Jan-08 07:33N 51°13' E 002°01'1111.1
2017-Jan-08 06:33N 51°06' E 001°47'1110.5
2017-Jan-08 05:33N 50°58' E 001°35'9 9.2
2017-Jan-08 04:33N 50°51' E 001°27'73 7.9
2017-Jan-07 19:23N 50°15' W 000°13'30 9.8
2017-Jan-07 16:18N 50°07' W 000°59'1411.5
2017-Jan-07 15:05N 50°04' W 001°19'611.9
2017-Jan-07 14:33N 50°02' W 001°29'1211.8
2017-Jan-07 13:34N 49°59' W 001°47'1111.0
2017-Jan-07 12:33N 49°56' W 002°03'  

Dump ship's entire track history